sensor_id;sensor_type;location;lat;lon;timestamp;temperature;humidity
56336;DHT22;42241;53.510;10.170;2022-10-16T00:01:38;14.00;99.90
56336;DHT22;42241;53.510;10.170;2022-10-16T00:04:04;14.00;99.90
56336;DHT22;42241;53.510;10.170;2022-10-16T00:06:30;14.00;99.90
56336;DHT22;42241;53.510;10.170;2022-10-16T00:08:56;14.00;99.90
56336;DHT22;42241;53.510;10.170;2022-10-16T00:11:23;13.90;99.90
56336;DHT22;42241;53.510;10.170;2022-10-16T00:13:50;13.80;99.90
56336;DHT22;42241;53.510;10.170;2022-10-16T00:16:16;13.80;99.90
56336;DHT22;42241;53.510;10.170;2022-10-16T00:18:42;13.80;99.90
56336;DHT22;42241;53.510;10.170;2022-10-16T00:21:14;13.80;99.90
56336;DHT22;42241;53.510;10.170;2022-10-16T00:23:40;13.80;99.90
56336;DHT22;42241;53.510;10.170;2022-10-16T00:26:07;13.80;99.90
56336;DHT22;42241;53.510;10.170;2022-10-16T00:28:33;13.70;99.90
56336;DHT22;42241;53.510;10.170;2022-10-16T00:30:58;13.70;99.90
56336;DHT22;42241;53.510;10.170;2022-10-16T00:33:24;13.70;99.90
56336;DHT22;42241;53.510;10.170;2022-10-16T00:35:50;13.60;99.90
56336;DHT22;42241;53.510;10.170;2022-10-16T00:38:15;13.60;99.90
56336;DHT22;42241;53.510;10.170;2022-10-16T00:40:41;13.60;99.90
56336;DHT22;42241;53.510;10.170;2022-10-16T00:43:13;13.60;99.90
56336;DHT22;42241;53.510;10.170;2022-10-16T00:45:39;13.60;99.90
56336;DHT22;42241;53.510;10.170;2022-10-16T00:48:06;13.50;99.90
56336;DHT22;42241;53.510;10.170;2022-10-16T00:50:35;13.50;99.90
56336;DHT22;42241;53.510;10.170;2022-10-16T00:53:01;13.50;99.90
56336;DHT22;42241;53.510;10.170;2022-10-16T00:55:27;13.50;99.90
56336;DHT22;42241;53.510;10.170;2022-10-16T00:57:53;13.50;99.90
56336;DHT22;42241;53.510;10.170;2022-10-16T01:00:20;13.40;99.90
56336;DHT22;42241;53.510;10.170;2022-10-16T01:02:54;13.40;99.90
56336;DHT22;42241;53.510;10.170;2022-10-16T01:05:24;13.40;99.90
56336;DHT22;42241;53.510;10.170;2022-10-16T01:16:09;13.40;99.90
56336;DHT22;42241;53.510;10.170;2022-10-16T01:21:28;13.40;99.90
56336;DHT22;42241;53.510;10.170;2022-10-16T01:29:27;13.30;99.90
56336;DHT22;42241;53.510;10.170;2022-10-16T01:31:53;13.40;99.90
56336;DHT22;42241;53.510;10.170;2022-10-16T01:34:22;13.40;99.90
56336;DHT22;42241;53.510;10.170;2022-10-16T01:36:55;13.40;99.90
56336;DHT22;42241;53.510;10.170;2022-10-16T01:39:23;13.30;99.90
56336;DHT22;42241;53.510;10.170;2022-10-16T01:41:52;13.30;99.90
56336;DHT22;42241;53.510;10.170;2022-10-16T01:44:21;13.30;99.90
56336;DHT22;42241;53.510;10.170;2022-10-16T01:46:48;13.20;99.90
56336;DHT22;42241;53.510;10.170;2022-10-16T01:49:15;13.20;99.90
56336;DHT22;42241;53.510;10.170;2022-10-16T01:51:41;13.20;99.90
56336;DHT22;42241;53.510;10.170;2022-10-16T01:54:08;13.20;99.90
56336;DHT22;42241;53.510;10.170;2022-10-16T01:56:34;13.10;99.90
56336;DHT22;42241;53.510;10.170;2022-10-16T01:59:09;13.10;99.90
56336;DHT22;42241;53.510;10.170;2022-10-16T02:01:36;13.10;99.90
56336;DHT22;42241;53.510;10.170;2022-10-16T02:04:07;13.10;99.90
56336;DHT22;42241;53.510;10.170;2022-10-16T02:06:33;13.10;99.90
56336;DHT22;42241;53.510;10.170;2022-10-16T02:08:59;13.10;99.90
56336;DHT22;42241;53.510;10.170;2022-10-16T02:11:25;13.10;99.90
56336;DHT22;42241;53.510;10.170;2022-10-16T02:13:53;13.10;99.90
56336;DHT22;42241;53.510;10.170;2022-10-16T02:16:19;13.10;99.90
56336;DHT22;42241;53.510;10.170;2022-10-16T02:18:45;13.10;99.90
56336;DHT22;42241;53.510;10.170;2022-10-16T02:21:15;13.00;99.90
56336;DHT22;42241;53.510;10.170;2022-10-16T02:26:14;13.00;99.90
56336;DHT22;42241;53.510;10.170;2022-10-16T02:28:42;12.90;99.90
56336;DHT22;42241;53.510;10.170;2022-10-16T02:31:11;12.90;99.90
56336;DHT22;42241;53.510;10.170;2022-10-16T02:33:38;12.90;99.90
56336;DHT22;42241;53.510;10.170;2022-10-16T02:36:05;12.90;99.90
56336;DHT22;42241;53.510;10.170;2022-10-16T02:38:31;12.90;99.90
56336;DHT22;42241;53.510;10.170;2022-10-16T02:40:56;12.90;99.90
56336;DHT22;42241;53.510;10.170;2022-10-16T02:43:22;12.90;99.90
56336;DHT22;42241;53.510;10.170;2022-10-16T02:45:47;12.90;99.90
56336;DHT22;42241;53.510;10.170;2022-10-16T02:48:13;12.90;99.90
56336;DHT22;42241;53.510;10.170;2022-10-16T02:50:38;12.80;99.90
56336;DHT22;42241;53.510;10.170;2022-10-16T02:53:04;12.90;99.90
56336;DHT22;42241;53.510;10.170;2022-10-16T02:55:30;12.80;99.90
56336;DHT22;42241;53.510;10.170;2022-10-16T02:57:55;12.80;99.90
56336;DHT22;42241;53.510;10.170;2022-10-16T03:00:21;12.80;99.90
56336;DHT22;42241;53.510;10.170;2022-10-16T03:02:46;12.70;99.90
56336;DHT22;42241;53.510;10.170;2022-10-16T03:05:12;12.70;99.90
56336;DHT22;42241;53.510;10.170;2022-10-16T03:07:38;12.70;99.90
56336;DHT22;42241;53.510;10.170;2022-10-16T03:10:06;12.70;99.90
56336;DHT22;42241;53.510;10.170;2022-10-16T03:12:32;12.70;99.90
56336;DHT22;42241;53.510;10.170;2022-10-16T03:14:57;12.60;99.90
56336;DHT22;42241;53.510;10.170;2022-10-16T03:17:23;12.60;99.90
56336;DHT22;42241;53.510;10.170;2022-10-16T03:19:49;12.60;99.90
56336;DHT22;42241;53.510;10.170;2022-10-16T03:22:14;12.60;99.90
56336;DHT22;42241;53.510;10.170;2022-10-16T03:24:40;12.50;99.90
56336;DHT22;42241;53.510;10.170;2022-10-16T03:27:06;12.50;99.90
56336;DHT22;42241;53.510;10.170;2022-10-16T03:29:31;12.40;99.90
56336;DHT22;42241;53.510;10.170;2022-10-16T03:31:58;12.40;99.90
56336;DHT22;42241;53.510;10.170;2022-10-16T03:34:23;12.50;99.90
56336;DHT22;42241;53.510;10.170;2022-10-16T03:36:49;12.40;99.90
56336;DHT22;42241;53.510;10.170;2022-10-16T03:39:15;12.40;99.90
56336;DHT22;42241;53.510;10.170;2022-10-16T03:41:40;12.40;99.90
56336;DHT22;42241;53.510;10.170;2022-10-16T03:44:06;12.30;99.90
56336;DHT22;42241;53.510;10.170;2022-10-16T03:46:32;12.30;99.90
56336;DHT22;42241;53.510;10.170;2022-10-16T03:48:57;12.30;99.90
56336;DHT22;42241;53.510;10.170;2022-10-16T03:51:23;12.30;99.90
56336;DHT22;42241;53.510;10.170;2022-10-16T03:53:48;12.30;99.90
56336;DHT22;42241;53.510;10.170;2022-10-16T03:56:14;12.30;99.90
56336;DHT22;42241;53.510;10.170;2022-10-16T03:58:41;12.30;99.90
56336;DHT22;42241;53.510;10.170;2022-10-16T04:01:07;12.30;99.90
56336;DHT22;42241;53.510;10.170;2022-10-16T04:03:33;12.30;99.90
56336;DHT22;42241;53.510;10.170;2022-10-16T04:05:58;12.30;99.90
56336;DHT22;42241;53.510;10.170;2022-10-16T04:08:24;12.30;99.90
56336;DHT22;42241;53.510;10.170;2022-10-16T04:10:49;12.30;99.90
56336;DHT22;42241;53.510;10.170;2022-10-16T04:13:17;12.30;99.90
56336;DHT22;42241;53.510;10.170;2022-10-16T04:15:44;12.20;99.90
56336;DHT22;42241;53.510;10.170;2022-10-16T04:18:10;12.20;99.90
56336;DHT22;42241;53.510;10.170;2022-10-16T04:20:36;12.20;99.90
56336;DHT22;42241;53.510;10.170;2022-10-16T04:23:02;12.20;99.90
56336;DHT22;42241;53.510;10.170;2022-10-16T04:25:28;12.20;99.90
56336;DHT22;42241;53.510;10.170;2022-10-16T04:27:54;12.10;99.90
56336;DHT22;42241;53.510;10.170;2022-10-16T04:30:19;12.10;99.90
56336;DHT22;42241;53.510;10.170;2022-10-16T04:32:48;12.10;99.90
56336;DHT22;42241;53.510;10.170;2022-10-16T04:35:15;12.10;99.90
56336;DHT22;42241;53.510;10.170;2022-10-16T04:37:40;12.10;99.90
56336;DHT22;42241;53.510;10.170;2022-10-16T04:40:06;12.10;99.90
56336;DHT22;42241;53.510;10.170;2022-10-16T04:42:32;12.10;99.90
56336;DHT22;42241;53.510;10.170;2022-10-16T04:44:58;12.10;99.90
56336;DHT22;42241;53.510;10.170;2022-10-16T04:47:23;12.10;99.90
56336;DHT22;42241;53.510;10.170;2022-10-16T04:49:48;12.00;99.90
56336;DHT22;42241;53.510;10.170;2022-10-16T04:52:14;12.10;99.90
56336;DHT22;42241;53.510;10.170;2022-10-16T04:54:40;12.00;99.90
56336;DHT22;42241;53.510;10.170;2022-10-16T04:57:05;12.00;99.90
56336;DHT22;42241;53.510;10.170;2022-10-16T04:59:31;12.00;99.90
56336;DHT22;42241;53.510;10.170;2022-10-16T05:01:57;12.00;99.90
56336;DHT22;42241;53.510;10.170;2022-10-16T05:04:22;12.00;99.90
56336;DHT22;42241;53.510;10.170;2022-10-16T05:06:48;12.00;99.90
56336;DHT22;42241;53.510;10.170;2022-10-16T05:09:13;11.90;99.90
56336;DHT22;42241;53.510;10.170;2022-10-16T05:11:39;11.90;99.90
56336;DHT22;42241;53.510;10.170;2022-10-16T05:14:05;11.90;99.90
56336;DHT22;42241;53.510;10.170;2022-10-16T05:16:30;11.90;99.90
56336;DHT22;42241;53.510;10.170;2022-10-16T05:18:56;11.90;99.90
56336;DHT22;42241;53.510;10.170;2022-10-16T05:21:21;11.90;99.90
56336;DHT22;42241;53.510;10.170;2022-10-16T05:23:47;11.80;99.90
56336;DHT22;42241;53.510;10.170;2022-10-16T05:26:13;11.80;99.90
56336;DHT22;42241;53.510;10.170;2022-10-16T05:28:38;11.80;99.90
56336;DHT22;42241;53.510;10.170;2022-10-16T05:31:05;11.80;99.90
56336;DHT22;42241;53.510;10.170;2022-10-16T05:33:31;11.80;99.90
56336;DHT22;42241;53.510;10.170;2022-10-16T05:35:57;11.80;99.90
56336;DHT22;42241;53.510;10.170;2022-10-16T05:38:22;11.80;99.90
56336;DHT22;42241;53.510;10.170;2022-10-16T05:40:51;11.80;99.90
56336;DHT22;42241;53.510;10.170;2022-10-16T05:43:17;11.70;99.90
56336;DHT22;42241;53.510;10.170;2022-10-16T05:48:33;11.70;99.90
56336;DHT22;42241;53.510;10.170;2022-10-16T05:51:00;11.70;99.90
56336;DHT22;42241;53.510;10.170;2022-10-16T05:53:29;11.70;99.90
56336;DHT22;42241;53.510;10.170;2022-10-16T05:55:55;11.80;99.90
56336;DHT22;42241;53.510;10.170;2022-10-16T05:58:21;11.80;99.90
56336;DHT22;42241;53.510;10.170;2022-10-16T06:00:54;11.80;99.90
56336;DHT22;42241;53.510;10.170;2022-10-16T06:03:20;11.70;99.90
56336;DHT22;42241;53.510;10.170;2022-10-16T06:05:45;11.70;99.90
56336;DHT22;42241;53.510;10.170;2022-10-16T06:08:11;11.70;99.90
56336;DHT22;42241;53.510;10.170;2022-10-16T06:10:36;11.70;99.90
56336;DHT22;42241;53.510;10.170;2022-10-16T06:13:02;11.70;99.90
56336;DHT22;42241;53.510;10.170;2022-10-16T06:15:28;11.70;99.90
56336;DHT22;42241;53.510;10.170;2022-10-16T06:17:53;11.70;99.90
56336;DHT22;42241;53.510;10.170;2022-10-16T06:20:19;11.80;99.90
56336;DHT22;42241;53.510;10.170;2022-10-16T06:22:44;11.70;99.90
56336;DHT22;42241;53.510;10.170;2022-10-16T06:25:10;11.80;99.90
56336;DHT22;42241;53.510;10.170;2022-10-16T06:27:35;11.80;99.90
56336;DHT22;42241;53.510;10.170;2022-10-16T06:30:01;11.80;99.90
56336;DHT22;42241;53.510;10.170;2022-10-16T06:32:27;11.80;99.90
56336;DHT22;42241;53.510;10.170;2022-10-16T06:34:52;11.80;99.90
56336;DHT22;42241;53.510;10.170;2022-10-16T06:37:18;11.80;99.90
56336;DHT22;42241;53.510;10.170;2022-10-16T06:39:43;11.70;99.90
56336;DHT22;42241;53.510;10.170;2022-10-16T06:42:09;11.70;99.90
56336;DHT22;42241;53.510;10.170;2022-10-16T06:44:34;11.70;99.90
56336;DHT22;42241;53.510;10.170;2022-10-16T06:47:00;11.70;99.90
56336;DHT22;42241;53.510;10.170;2022-10-16T06:49:25;11.70;99.90
56336;DHT22;42241;53.510;10.170;2022-10-16T06:51:51;11.70;99.90
56336;DHT22;42241;53.510;10.170;2022-10-16T06:54:16;11.80;99.90
56336;DHT22;42241;53.510;10.170;2022-10-16T06:56:43;11.70;99.90
56336;DHT22;42241;53.510;10.170;2022-10-16T06:59:08;11.80;99.90
56336;DHT22;42241;53.510;10.170;2022-10-16T07:01:34;11.80;99.90
56336;DHT22;42241;53.510;10.170;2022-10-16T07:04:00;11.90;99.90
56336;DHT22;42241;53.510;10.170;2022-10-16T07:06:26;11.90;99.90
56336;DHT22;42241;53.510;10.170;2022-10-16T07:08:52;12.00;99.90
56336;DHT22;42241;53.510;10.170;2022-10-16T07:11:19;12.10;99.90
56336;DHT22;42241;53.510;10.170;2022-10-16T07:13:45;12.20;99.90
56336;DHT22;42241;53.510;10.170;2022-10-16T07:16:13;12.30;99.90
56336;DHT22;42241;53.510;10.170;2022-10-16T07:18:39;12.40;99.90
56336;DHT22;42241;53.510;10.170;2022-10-16T07:21:06;12.50;99.90
56336;DHT22;42241;53.510;10.170;2022-10-16T07:23:32;12.60;99.90
56336;DHT22;42241;53.510;10.170;2022-10-16T07:25:58;12.70;99.90
56336;DHT22;42241;53.510;10.170;2022-10-16T07:28:23;12.80;99.90
56336;DHT22;42241;53.510;10.170;2022-10-16T07:30:49;12.80;99.90
56336;DHT22;42241;53.510;10.170;2022-10-16T07:33:15;13.00;99.90
56336;DHT22;42241;53.510;10.170;2022-10-16T07:35:53;13.10;99.90
56336;DHT22;42241;53.510;10.170;2022-10-16T07:38:19;13.40;99.90
56336;DHT22;42241;53.510;10.170;2022-10-16T07:40:45;13.70;99.90
56336;DHT22;42241;53.510;10.170;2022-10-16T07:43:10;13.90;99.90
56336;DHT22;42241;53.510;10.170;2022-10-16T07:45:36;14.20;99.90
56336;DHT22;42241;53.510;10.170;2022-10-16T07:48:02;14.40;99.90
56336;DHT22;42241;53.510;10.170;2022-10-16T07:50:27;14.60;99.90
56336;DHT22;42241;53.510;10.170;2022-10-16T07:52:53;14.70;99.90
56336;DHT22;42241;53.510;10.170;2022-10-16T07:55:18;14.60;99.90
56336;DHT22;42241;53.510;10.170;2022-10-16T07:57:44;14.60;99.90
56336;DHT22;42241;53.510;10.170;2022-10-16T08:00:10;14.50;99.90
56336;DHT22;42241;53.510;10.170;2022-10-16T08:02:39;14.70;99.90
56336;DHT22;42241;53.510;10.170;2022-10-16T08:05:05;14.90;99.90
56336;DHT22;42241;53.510;10.170;2022-10-16T08:07:31;15.20;99.90
56336;DHT22;42241;53.510;10.170;2022-10-16T08:09:56;15.50;99.90
56336;DHT22;42241;53.510;10.170;2022-10-16T08:12:23;15.70;99.90
56336;DHT22;42241;53.510;10.170;2022-10-16T08:14:49;16.00;99.90
56336;DHT22;42241;53.510;10.170;2022-10-16T08:17:14;16.00;99.90
56336;DHT22;42241;53.510;10.170;2022-10-16T08:19:43;15.90;99.90
56336;DHT22;42241;53.510;10.170;2022-10-16T08:22:09;16.00;99.90
56336;DHT22;42241;53.510;10.170;2022-10-16T08:24:34;15.80;99.90
56336;DHT22;42241;53.510;10.170;2022-10-16T08:27:02;15.80;99.90
56336;DHT22;42241;53.510;10.170;2022-10-16T08:29:27;15.60;99.90
56336;DHT22;42241;53.510;10.170;2022-10-16T08:31:53;15.40;99.90
56336;DHT22;42241;53.510;10.170;2022-10-16T08:34:18;15.40;99.90
56336;DHT22;42241;53.510;10.170;2022-10-16T08:36:44;15.40;99.90
56336;DHT22;42241;53.510;10.170;2022-10-16T08:39:10;15.50;99.90
56336;DHT22;42241;53.510;10.170;2022-10-16T08:49:35;15.50;99.90
56336;DHT22;42241;53.510;10.170;2022-10-16T08:52:01;15.80;99.90
56336;DHT22;42241;53.510;10.170;2022-10-16T08:54:31;16.10;99.90
56336;DHT22;42241;53.510;10.170;2022-10-16T08:57:04;16.40;99.90
56336;DHT22;42241;53.510;10.170;2022-10-16T08:59:32;16.60;99.90
56336;DHT22;42241;53.510;10.170;2022-10-16T09:17:21;21.40;99.90
56336;DHT22;42241;53.510;10.170;2022-10-16T09:19:54;21.90;99.90
56336;DHT22;42241;53.510;10.170;2022-10-16T09:22:22;22.40;99.90
56336;DHT22;42241;53.510;10.170;2022-10-16T09:24:50;22.70;99.90
56336;DHT22;42241;53.510;10.170;2022-10-16T09:27:16;22.30;99.90
56336;DHT22;42241;53.510;10.170;2022-10-16T09:29:42;23.10;99.90
56336;DHT22;42241;53.510;10.170;2022-10-16T09:32:15;24.20;99.90
56336;DHT22;42241;53.510;10.170;2022-10-16T09:34:43;25.30;99.90
56336;DHT22;42241;53.510;10.170;2022-10-16T09:37:12;26.20;99.90
56336;DHT22;42241;53.510;10.170;2022-10-16T09:42:23;27.80;99.90
56336;DHT22;42241;53.510;10.170;2022-10-16T09:44:52;27.70;99.90
56336;DHT22;42241;53.510;10.170;2022-10-16T09:47:25;28.50;99.90
56336;DHT22;42241;53.510;10.170;2022-10-16T09:49:56;29.20;96.80
56336;DHT22;42241;53.510;10.170;2022-10-16T09:52:25;30.10;91.10
56336;DHT22;42241;53.510;10.170;2022-10-16T09:57:16;26.40;98.00
56336;DHT22;42241;53.510;10.170;2022-10-16T09:59:46;27.20;97.50
56336;DHT22;42241;53.510;10.170;2022-10-16T10:02:11;28.40;93.80
56336;DHT22;42241;53.510;10.170;2022-10-16T10:04:41;27.90;93.60
56336;DHT22;42241;53.510;10.170;2022-10-16T10:07:07;27.10;94.50
56336;DHT22;42241;53.510;10.170;2022-10-16T10:09:43;28.30;92.40
56336;DHT22;42241;53.510;10.170;2022-10-16T10:14:45;31.10;79.20
56336;DHT22;42241;53.510;10.170;2022-10-16T10:17:21;32.50;72.20
56336;DHT22;42241;53.510;10.170;2022-10-16T10:19:53;32.80;66.90
56336;DHT22;42241;53.510;10.170;2022-10-16T10:27:36;36.10;55.50
56336;DHT22;42241;53.510;10.170;2022-10-16T10:35:01;35.60;49.00
56336;DHT22;42241;53.510;10.170;2022-10-16T10:37:45;35.00;50.70
56336;DHT22;42241;53.510;10.170;2022-10-16T10:42:47;36.80;48.20
56336;DHT22;42241;53.510;10.170;2022-10-16T10:45:21;36.90;46.90
56336;DHT22;42241;53.510;10.170;2022-10-16T10:48:04;36.40;46.20
56336;DHT22;42241;53.510;10.170;2022-10-16T10:50:38;37.20;44.50
56336;DHT22;42241;53.510;10.170;2022-10-16T10:55:38;37.50;43.00
56336;DHT22;42241;53.510;10.170;2022-10-16T11:03:09;38.10;39.90
56336;DHT22;42241;53.510;10.170;2022-10-16T11:05:45;36.70;41.30
56336;DHT22;42241;53.510;10.170;2022-10-16T11:08:19;33.30;44.90
56336;DHT22;42241;53.510;10.170;2022-10-16T11:11:08;31.90;49.90
56336;DHT22;42241;53.510;10.170;2022-10-16T11:13:34;31.40;51.30
56336;DHT22;42241;53.510;10.170;2022-10-16T11:16:11;32.80;53.00
56336;DHT22;42241;53.510;10.170;2022-10-16T11:18:42;34.40;45.60
56336;DHT22;42241;53.510;10.170;2022-10-16T11:21:10;36.30;44.30
56336;DHT22;42241;53.510;10.170;2022-10-16T11:23:39;37.30;42.30
56336;DHT22;42241;53.510;10.170;2022-10-16T11:26:10;38.40;41.40
56336;DHT22;42241;53.510;10.170;2022-10-16T11:28:41;38.30;40.40
56336;DHT22;42241;53.510;10.170;2022-10-16T11:31:10;38.80;39.50
56336;DHT22;42241;53.510;10.170;2022-10-16T11:36:21;39.80;37.10
56336;DHT22;42241;53.510;10.170;2022-10-16T11:46:29;36.30;40.90
56336;DHT22;42241;53.510;10.170;2022-10-16T11:51:38;35.00;41.80
56336;DHT22;42241;53.510;10.170;2022-10-16T11:54:47;31.70;43.80
56336;DHT22;42241;53.510;10.170;2022-10-16T11:56:54;29.20;50.80
56336;DHT22;42241;53.510;10.170;2022-10-16T12:02:19;26.20;56.40
56336;DHT22;42241;53.510;10.170;2022-10-16T12:04:43;24.80;62.30
56336;DHT22;42241;53.510;10.170;2022-10-16T12:07:14;24.70;67.10
56336;DHT22;42241;53.510;10.170;2022-10-16T12:09:41;24.10;72.80
56336;DHT22;42241;53.510;10.170;2022-10-16T12:15:01;23.40;77.90
56336;DHT22;42241;53.510;10.170;2022-10-16T12:20:31;22.20;87.60
56336;DHT22;42241;53.510;10.170;2022-10-16T12:22:59;22.10;90.90
56336;DHT22;42241;53.510;10.170;2022-10-16T12:27:54;21.60;94.30
56336;DHT22;42241;53.510;10.170;2022-10-16T12:30:22;21.10;96.70
56336;DHT22;42241;53.510;10.170;2022-10-16T12:32:57;21.00;98.20
56336;DHT22;42241;53.510;10.170;2022-10-16T12:35:25;20.40;99.90
56336;DHT22;42241;53.510;10.170;2022-10-16T12:37:51;19.90;99.90
56336;DHT22;42241;53.510;10.170;2022-10-16T12:42:49;20.10;99.90
56336;DHT22;42241;53.510;10.170;2022-10-16T12:48:20;20.20;99.90
56336;DHT22;42241;53.510;10.170;2022-10-16T12:50:45;19.90;99.90
56336;DHT22;42241;53.510;10.170;2022-10-16T12:53:18;19.70;99.90
56336;DHT22;42241;53.510;10.170;2022-10-16T12:55:48;19.40;99.90
56336;DHT22;42241;53.510;10.170;2022-10-16T13:00:50;19.20;99.90
56336;DHT22;42241;53.510;10.170;2022-10-16T13:16:07;18.80;99.90
56336;DHT22;42241;53.510;10.170;2022-10-16T13:18:44;18.70;99.90
56336;DHT22;42241;53.510;10.170;2022-10-16T13:21:18;18.80;99.90
56336;DHT22;42241;53.510;10.170;2022-10-16T13:29:02;19.60;99.90
56336;DHT22;42241;53.510;10.170;2022-10-16T13:31:28;19.50;99.90
56336;DHT22;42241;53.510;10.170;2022-10-16T13:33:55;19.30;99.90
56336;DHT22;42241;53.510;10.170;2022-10-16T13:36:34;19.10;99.90
56336;DHT22;42241;53.510;10.170;2022-10-16T13:39:10;18.90;99.90
56336;DHT22;42241;53.510;10.170;2022-10-16T13:41:37;18.80;99.90
56336;DHT22;42241;53.510;10.170;2022-10-16T13:44:02;18.70;99.90
56336;DHT22;42241;53.510;10.170;2022-10-16T13:46:28;18.50;99.90
56336;DHT22;42241;53.510;10.170;2022-10-16T13:49:00;18.50;99.90
56336;DHT22;42241;53.510;10.170;2022-10-16T13:51:27;18.50;99.90
56336;DHT22;42241;53.510;10.170;2022-10-16T13:53:54;18.50;99.90
56336;DHT22;42241;53.510;10.170;2022-10-16T13:56:20;18.50;99.90
56336;DHT22;42241;53.510;10.170;2022-10-16T13:58:57;18.60;99.90
56336;DHT22;42241;53.510;10.170;2022-10-16T14:01:23;18.50;99.90
56336;DHT22;42241;53.510;10.170;2022-10-16T14:03:49;18.40;99.90
56336;DHT22;42241;53.510;10.170;2022-10-16T14:06:19;18.40;99.90
56336;DHT22;42241;53.510;10.170;2022-10-16T14:08:50;18.50;99.90
56336;DHT22;42241;53.510;10.170;2022-10-16T14:11:20;18.50;99.90
56336;DHT22;42241;53.510;10.170;2022-10-16T14:13:46;18.60;99.90
56336;DHT22;42241;53.510;10.170;2022-10-16T14:16:17;18.50;99.90
56336;DHT22;42241;53.510;10.170;2022-10-16T14:18:44;18.50;99.90
56336;DHT22;42241;53.510;10.170;2022-10-16T14:21:14;18.30;99.90
56336;DHT22;42241;53.510;10.170;2022-10-16T14:23:41;18.40;99.90
56336;DHT22;42241;53.510;10.170;2022-10-16T14:28:36;18.40;99.90
56336;DHT22;42241;53.510;10.170;2022-10-16T14:31:02;18.50;99.90
56336;DHT22;42241;53.510;10.170;2022-10-16T14:36:03;18.40;99.90
56336;DHT22;42241;53.510;10.170;2022-10-16T14:38:29;18.30;99.90
56336;DHT22;42241;53.510;10.170;2022-10-16T14:40:54;18.40;99.90
56336;DHT22;42241;53.510;10.170;2022-10-16T14:43:22;18.40;99.90
56336;DHT22;42241;53.510;10.170;2022-10-16T14:45:52;18.50;99.90
56336;DHT22;42241;53.510;10.170;2022-10-16T14:48:18;18.40;99.90
56336;DHT22;42241;53.510;10.170;2022-10-16T14:50:44;18.40;99.90
56336;DHT22;42241;53.510;10.170;2022-10-16T14:53:13;18.40;99.90
56336;DHT22;42241;53.510;10.170;2022-10-16T14:55:39;18.40;99.90
56336;DHT22;42241;53.510;10.170;2022-10-16T14:58:08;18.30;99.90
56336;DHT22;42241;53.510;10.170;2022-10-16T15:00:35;18.20;99.90
56336;DHT22;42241;53.510;10.170;2022-10-16T15:03:00;18.20;99.90
56336;DHT22;42241;53.510;10.170;2022-10-16T15:05:26;18.10;99.90
56336;DHT22;42241;53.510;10.170;2022-10-16T15:07:53;18.20;99.90
56336;DHT22;42241;53.510;10.170;2022-10-16T15:10:19;18.10;99.90
56336;DHT22;42241;53.510;10.170;2022-10-16T15:12:45;18.10;99.90
56336;DHT22;42241;53.510;10.170;2022-10-16T15:17:49;18.10;99.90
56336;DHT22;42241;53.510;10.170;2022-10-16T15:20:18;18.10;99.90
56336;DHT22;42241;53.510;10.170;2022-10-16T15:22:45;18.00;99.90
56336;DHT22;42241;53.510;10.170;2022-10-16T15:27:56;17.90;99.90
56336;DHT22;42241;53.510;10.170;2022-10-16T15:30:22;17.70;99.90
56336;DHT22;42241;53.510;10.170;2022-10-16T15:32:47;17.60;99.90
56336;DHT22;42241;53.510;10.170;2022-10-16T15:35:13;17.50;99.90
56336;DHT22;42241;53.510;10.170;2022-10-16T15:37:38;17.50;99.90
56336;DHT22;42241;53.510;10.170;2022-10-16T15:40:04;17.40;99.90
56336;DHT22;42241;53.510;10.170;2022-10-16T15:42:30;17.30;99.90
56336;DHT22;42241;53.510;10.170;2022-10-16T15:44:56;17.20;99.90
56336;DHT22;42241;53.510;10.170;2022-10-16T15:47:21;17.20;99.90
56336;DHT22;42241;53.510;10.170;2022-10-16T15:49:47;17.00;99.90
56336;DHT22;42241;53.510;10.170;2022-10-16T15:52:12;16.90;99.90
56336;DHT22;42241;53.510;10.170;2022-10-16T15:54:38;16.80;99.90
56336;DHT22;42241;53.510;10.170;2022-10-16T15:57:03;16.80;99.90
56336;DHT22;42241;53.510;10.170;2022-10-16T15:59:29;16.70;99.90
56336;DHT22;42241;53.510;10.170;2022-10-16T16:01:55;16.70;99.90
56336;DHT22;42241;53.510;10.170;2022-10-16T16:04:21;16.60;99.90
56336;DHT22;42241;53.510;10.170;2022-10-16T16:06:46;16.60;99.90
56336;DHT22;42241;53.510;10.170;2022-10-16T16:09:12;16.60;99.90
56336;DHT22;42241;53.510;10.170;2022-10-16T16:11:38;16.50;99.90
56336;DHT22;42241;53.510;10.170;2022-10-16T16:14:05;16.40;99.90
56336;DHT22;42241;53.510;10.170;2022-10-16T16:16:30;16.30;99.90
56336;DHT22;42241;53.510;10.170;2022-10-16T16:18:57;16.20;99.90
56336;DHT22;42241;53.510;10.170;2022-10-16T16:21:22;16.00;99.90
56336;DHT22;42241;53.510;10.170;2022-10-16T16:23:48;15.80;99.90
56336;DHT22;42241;53.510;10.170;2022-10-16T16:26:23;15.70;99.90
56336;DHT22;42241;53.510;10.170;2022-10-16T16:28:52;15.60;99.90
56336;DHT22;42241;53.510;10.170;2022-10-16T16:31:18;15.40;99.90
56336;DHT22;42241;53.510;10.170;2022-10-16T16:33:44;15.30;99.90
56336;DHT22;42241;53.510;10.170;2022-10-16T16:36:10;15.20;99.90
56336;DHT22;42241;53.510;10.170;2022-10-16T16:38:35;15.10;99.90
56336;DHT22;42241;53.510;10.170;2022-10-16T16:41:14;14.90;99.90
56336;DHT22;42241;53.510;10.170;2022-10-16T16:43:40;14.80;99.90
56336;DHT22;42241;53.510;10.170;2022-10-16T16:46:05;14.80;99.90
56336;DHT22;42241;53.510;10.170;2022-10-16T16:48:31;14.70;99.90
56336;DHT22;42241;53.510;10.170;2022-10-16T16:51:02;14.60;99.90
56336;DHT22;42241;53.510;10.170;2022-10-16T16:53:27;14.50;99.90
56336;DHT22;42241;53.510;10.170;2022-10-16T16:56:00;14.50;99.90
56336;DHT22;42241;53.510;10.170;2022-10-16T16:58:26;14.40;99.90
56336;DHT22;42241;53.510;10.170;2022-10-16T17:00:51;14.40;99.90
56336;DHT22;42241;53.510;10.170;2022-10-16T17:03:17;14.40;99.90
56336;DHT22;42241;53.510;10.170;2022-10-16T17:05:43;14.30;99.90
56336;DHT22;42241;53.510;10.170;2022-10-16T17:08:08;14.30;99.90
56336;DHT22;42241;53.510;10.170;2022-10-16T17:10:41;14.20;99.90
56336;DHT22;42241;53.510;10.170;2022-10-16T17:13:07;14.20;99.90
56336;DHT22;42241;53.510;10.170;2022-10-16T17:15:32;14.10;99.90
56336;DHT22;42241;53.510;10.170;2022-10-16T17:17:58;14.10;99.90
56336;DHT22;42241;53.510;10.170;2022-10-16T17:20:23;14.10;99.90
56336;DHT22;42241;53.510;10.170;2022-10-16T17:22:49;14.00;99.90
56336;DHT22;42241;53.510;10.170;2022-10-16T17:25:14;14.00;99.90
56336;DHT22;42241;53.510;10.170;2022-10-16T17:27:40;14.00;99.90
56336;DHT22;42241;53.510;10.170;2022-10-16T17:30:06;14.00;99.90